createdAt,value
2019-04-30T00:01:02.169Z,100410.95
2019-04-30T00:03:36.096Z,100411.97
2019-04-30T00:06:07.208Z,100413.69
2019-04-30T00:08:39.065Z,100408.53
2019-04-30T00:11:10.903Z,100400.72
2019-04-30T00:13:38.169Z,100407.42
2019-04-30T00:16:07.409Z,100398.01
2019-04-30T00:18:39.476Z,100398.78
2019-04-30T00:21:10.049Z,100398.09
2019-04-30T00:23:38.517Z,100397.78
2019-04-30T00:26:10.315Z,100397.09
2019-04-30T00:28:39.469Z,100394.27
2019-04-30T00:31:09.649Z,100395.27
2019-04-30T00:33:38.912Z,100397.28
2019-04-30T00:36:08.128Z,100394.94
2019-04-30T00:38:37.952Z,100390.64
2019-04-30T00:41:10.138Z,100391.80
2019-04-30T00:43:46.608Z,100395.95
2019-04-30T00:46:09.677Z,100394.46
2019-04-30T00:48:38.916Z,100392.30
2019-04-30T00:51:14.098Z,100395.63
2019-04-30T00:53:39.099Z,100392.97
2019-04-30T00:56:08.317Z,100390.78
2019-04-30T00:58:37.551Z,100390.95
2019-04-30T01:01:15.246Z,100392.77
2019-04-30T01:03:49.397Z,100386.42
2019-04-30T01:06:24.056Z,100385.77
2019-04-30T01:08:48.206Z,100389.75
2019-04-30T01:11:17.483Z,100384.43
2019-04-30T01:13:52.531Z,100385.42
2019-04-30T01:16:19.455Z,100385.09
2019-04-30T01:18:49.219Z,100386.06
2019-04-30T01:21:18.579Z,100379.41
2019-04-30T01:23:53.050Z,100379.25
2019-04-30T01:26:18.838Z,100372.09
2019-04-30T01:28:53.636Z,100369.14
2019-04-30T01:31:21.135Z,100367.20
2019-04-30T01:33:50.478Z,100367.67
2019-04-30T01:36:19.704Z,100363.67
2019-04-30T01:38:52.442Z,100363.20
2019-04-30T01:41:27.229Z,100366.37
2019-04-30T01:43:51.066Z,100364.20
2019-04-30T01:46:20.996Z,100364.03
2019-04-30T01:48:51.922Z,100369.61
2019-04-30T01:51:21.881Z,100368.05
2019-04-30T01:53:51.340Z,100371.84
2019-04-30T01:56:22.210Z,100372.84
2019-04-30T01:59:09.166Z,100375.17
2019-04-30T02:01:46.272Z,100371.34
2019-04-30T02:04:15.502Z,100372.48
2019-04-30T02:06:44.714Z,100373.98
2019-04-30T02:09:13.958Z,100369.41
2019-04-30T02:11:43.163Z,100370.41
2019-04-30T02:14:12.404Z,100367.52
2019-04-30T02:16:41.638Z,100365.36
2019-04-30T02:19:10.912Z,100365.75
2019-04-30T02:21:40.101Z,100363.34
2019-04-30T02:24:11.158Z,100364.59
2019-04-30T02:26:40.284Z,100363.59
2019-04-30T02:29:09.550Z,100361.06
2019-04-30T02:31:40.804Z,100363.06
2019-04-30T02:34:21.711Z,100359.27
2019-04-30T02:37:02.031Z,100360.02
2019-04-30T02:39:31.281Z,100359.19
2019-04-30T02:42:00.558Z,100365.00
2019-04-30T02:44:29.821Z,100357.02
2019-04-30T02:47:00.370Z,100362.56
2019-04-30T02:49:30.527Z,100362.78
2019-04-30T02:52:00.665Z,100361.23
2019-04-30T02:54:29.924Z,100360.38
2019-04-30T02:57:00.862Z,100361.70
2019-04-30T02:59:30.278Z,100358.35
2019-04-30T03:01:59.849Z,100355.55
2019-04-30T03:04:29.519Z,100362.17
2019-04-30T03:06:59.783Z,100365.30
2019-04-30T03:09:29.841Z,100362.31
2019-04-30T03:12:00.313Z,100360.98
2019-04-30T03:14:30.176Z,100357.08
2019-04-30T03:17:01.254Z,100354.25
2019-04-30T03:19:40.102Z,100355.25
2019-04-30T03:22:10.530Z,100356.85
2019-04-30T03:24:42.727Z,100352.92
2019-04-30T03:27:10.734Z,100358.52
2019-04-30T03:29:40.708Z,100354.89
2019-04-30T03:32:13.622Z,100357.69
2019-04-30T03:34:42.265Z,100352.09
2019-04-30T03:37:11.853Z,100354.89
2019-04-30T03:39:41.146Z,100355.69
2019-04-30T03:42:10.433Z,100353.72
2019-04-30T03:44:40.240Z,100356.41
2019-04-30T03:47:11.068Z,100349.93
2019-04-30T03:49:40.529Z,100352.76
2019-04-30T03:52:13.109Z,100351.76
2019-04-30T03:54:41.024Z,100350.23
2019-04-30T03:57:10.826Z,100346.94
2019-04-30T03:59:40.406Z,100349.45
2019-04-30T04:02:30.232Z,100345.49
2019-04-30T04:05:01.388Z,100346.05
2019-04-30T04:07:41.351Z,100346.81
2019-04-30T04:10:14.918Z,100355.34
2019-04-30T04:12:44.140Z,100352.57
2019-04-30T04:15:13.380Z,100354.55
2019-04-30T04:17:42.601Z,100355.68
2019-04-30T04:20:11.879Z,100356.92
2019-04-30T04:22:41.130Z,100362.72
2019-04-30T04:25:13.262Z,100354.77
2019-04-30T04:27:41.307Z,100362.24
2019-04-30T04:30:10.818Z,100361.83
2019-04-30T04:32:40.878Z,100361.89
2019-04-30T04:35:12.826Z,100359.22
2019-04-30T04:37:41.215Z,100369.61
2019-04-30T04:40:10.436Z,100367.16
2019-04-30T04:42:39.808Z,100370.05
2019-04-30T04:45:09.868Z,100363.63
2019-04-30T04:47:40.342Z,100375.76
2019-04-30T04:50:10.494Z,100374.59
2019-04-30T04:52:39.962Z,100370.19
2019-04-30T04:55:09.984Z,100367.97
2019-04-30T04:57:40.199Z,100371.47
2019-04-30T05:00:10.769Z,100374.12
2019-04-30T05:02:41.884Z,100376.42
2019-04-30T05:05:11.169Z,100371.64
2019-04-30T05:07:40.427Z,100375.90
2019-04-30T05:10:09.883Z,100374.77
2019-04-30T05:12:39.817Z,100370.91
2019-04-30T05:15:09.995Z,100373.38
2019-04-30T05:17:39.745Z,100373.21
2019-04-30T05:20:10.285Z,100369.89
2019-04-30T05:22:39.560Z,100378.78
2019-04-30T05:25:09.056Z,100375.69
2019-04-30T05:27:39.312Z,100377.23
2019-04-30T05:30:11.772Z,100377.03
2019-04-30T05:32:40.092Z,100372.35
2019-04-30T05:35:09.636Z,100382.19
2019-04-30T05:37:39.061Z,100378.01
2019-04-30T05:40:09.267Z,100380.69
2019-04-30T05:42:38.909Z,100372.85
2019-04-30T05:45:09.474Z,100369.06
2019-04-30T05:47:39.044Z,100368.87
2019-04-30T05:50:08.891Z,100375.13
2019-04-30T05:52:39.750Z,100372.35
2019-04-30T05:55:09.340Z,100385.05
2019-04-30T05:57:47.238Z,100381.22
2019-04-30T06:00:10.209Z,100387.54
2019-04-30T06:02:40.043Z,100388.34
2019-04-30T06:05:09.411Z,100387.98
2019-04-30T06:07:39.508Z,100391.28
2019-04-30T06:10:19.407Z,100393.77
2019-04-30T06:12:59.489Z,100393.80
2019-04-30T06:15:49.106Z,100397.89
2019-04-30T06:18:18.611Z,100401.20
2019-04-30T06:20:49.510Z,100398.41
2019-04-30T06:23:19.504Z,100402.95
2019-04-30T06:25:57.244Z,100400.52
2019-04-30T06:28:22.171Z,100404.01
2019-04-30T06:30:51.424Z,100409.73
2019-04-30T06:33:20.734Z,100402.09
2019-04-30T06:35:49.956Z,100409.38
2019-04-30T06:38:19.188Z,100410.30
2019-04-30T06:40:48.854Z,100412.46
2019-04-30T06:43:19.057Z,100411.74
2019-04-30T06:45:50.959Z,100409.33
2019-04-30T06:48:19.886Z,100409.36
2019-04-30T06:50:49.388Z,100411.38
2019-04-30T06:53:19.226Z,100408.41
2019-04-30T06:55:49.266Z,100416.03
2019-04-30T06:58:20.583Z,100417.72
2019-04-30T07:00:49.786Z,100414.12
2019-04-30T07:03:19.310Z,100413.59
2019-04-30T07:05:48.910Z,100414.06
2019-04-30T07:08:39.516Z,100414.56
2019-04-30T07:11:23.892Z,100410.53
2019-04-30T07:13:53.334Z,100413.87
2019-04-30T07:16:22.625Z,100408.72
2019-04-30T07:18:51.935Z,100408.28
2019-04-30T07:21:21.169Z,100404.57
2019-04-30T07:23:50.483Z,100407.73
2019-04-30T07:26:24.414Z,100406.53
2019-04-30T07:28:54.819Z,100408.44
2019-04-30T07:31:21.714Z,100402.38
2019-04-30T07:33:53.802Z,100407.28
2019-04-30T07:36:22.034Z,100412.08
2019-04-30T07:38:56.130Z,100409.51
2019-04-30T07:41:22.341Z,100409.71
2019-04-30T07:43:51.547Z,100409.44
2019-04-30T07:46:20.839Z,100407.17
2019-04-30T07:48:50.330Z,100402.99
2019-04-30T07:51:21.084Z,100409.86
2019-04-30T07:53:50.686Z,100406.95
2019-04-30T07:56:27.986Z,100406.08
2019-04-30T07:58:50.890Z,100417.30
2019-04-30T08:01:20.125Z,100415.39
2019-04-30T08:03:54.107Z,100415.72
2019-04-30T08:06:23.975Z,100417.88
2019-04-30T08:08:57.634Z,100421.92
2019-04-30T08:11:26.424Z,100427.56
2019-04-30T08:13:55.152Z,100416.91
2019-04-30T08:16:24.400Z,100428.39
2019-04-30T08:18:53.615Z,100417.58
2019-04-30T08:21:23.432Z,100417.11
2019-04-30T08:23:52.647Z,100419.39
2019-04-30T08:26:21.881Z,100416.28
2019-04-30T08:28:51.166Z,100419.80
2019-04-30T08:31:20.411Z,100412.63
2019-04-30T08:33:49.623Z,100415.73
2019-04-30T08:36:19.669Z,100417.12
2019-04-30T08:38:49.631Z,100417.81
2019-04-30T08:41:19.413Z,100415.90
2019-04-30T08:43:49.638Z,100416.17
2019-04-30T08:46:19.278Z,100420.92
2019-04-30T08:48:52.516Z,100417.95
2019-04-30T08:51:19.835Z,100417.04
2019-04-30T08:53:49.387Z,100410.95
2019-04-30T08:56:21.685Z,100403.98
2019-04-30T08:58:49.661Z,100413.09
2019-04-30T09:01:19.744Z,100411.88
2019-04-30T09:03:51.187Z,100407.41
2019-04-30T09:06:21.818Z,100403.78
2019-04-30T09:08:51.691Z,100406.33
2019-04-30T09:11:27.364Z,100402.08
2019-04-30T09:13:51.867Z,100404.27
2019-04-30T09:16:21.116Z,100396.08
2019-04-30T09:18:50.326Z,100396.23
2019-04-30T09:21:19.672Z,100394.95
2019-04-30T09:23:52.471Z,100394.83
2019-04-30T09:26:19.919Z,100402.59
2019-04-30T09:28:49.535Z,100404.22
2019-04-30T09:31:19.798Z,100404.31
2019-04-30T09:33:49.380Z,100400.81
2019-04-30T09:36:20.607Z,100395.31
2019-04-30T09:38:49.604Z,100398.12
2019-04-30T09:41:19.308Z,100396.55
2019-04-30T09:43:49.480Z,100395.48
2019-04-30T09:46:26.299Z,100392.31
2019-04-30T09:48:50.856Z,100388.44
2019-04-30T09:51:23.898Z,100386.94
2019-04-30T09:53:59.168Z,100385.09
2019-04-30T09:56:22.247Z,100376.19
2019-04-30T09:58:51.473Z,100378.15
2019-04-30T10:01:22.056Z,100375.33
2019-04-30T10:03:51.925Z,100377.05
2019-04-30T10:06:21.504Z,100376.06
2019-04-30T10:08:51.391Z,100374.05
2019-04-30T10:11:38.705Z,100373.66
2019-04-30T10:14:07.997Z,100372.50
2019-04-30T10:16:53.690Z,100370.67
2019-04-30T10:19:22.904Z,100372.82
2019-04-30T10:21:52.139Z,100363.63
2019-04-30T10:24:21.361Z,100366.61
2019-04-30T10:26:52.572Z,100370.75
2019-04-30T10:29:21.693Z,100370.86
2019-04-30T10:31:51.694Z,100360.07
2019-04-30T10:34:20.911Z,100361.72
2019-04-30T10:36:50.134Z,100352.92
2019-04-30T10:39:21.693Z,100354.27
2019-04-30T10:41:50.312Z,100350.53
2019-04-30T10:44:19.548Z,100353.21
2019-04-30T10:46:48.792Z,100347.52
2019-04-30T10:49:19.196Z,100347.95
2019-04-30T10:51:48.652Z,100346.59
2019-04-30T10:54:26.080Z,100346.09
2019-04-30T10:56:51.427Z,100340.05
2019-04-30T10:59:19.851Z,100340.69
2019-04-30T11:01:49.359Z,100340.45
2019-04-30T11:04:19.452Z,100343.42
2019-04-30T11:06:48.656Z,100338.16
2019-04-30T11:09:17.896Z,100338.80
2019-04-30T11:11:47.105Z,100335.13
2019-04-30T11:14:16.322Z,100330.91
2019-04-30T11:16:45.706Z,100333.25
2019-04-30T11:19:15.265Z,100330.61
2019-04-30T11:21:44.737Z,100333.72
2019-04-30T11:24:14.386Z,100334.88
2019-04-30T11:26:44.607Z,100332.08
2019-04-30T11:29:14.694Z,100329.77
2019-04-30T11:31:46.004Z,100330.50
2019-04-30T11:34:15.533Z,100332.06
2019-04-30T11:36:44.935Z,100324.28
2019-04-30T11:39:18.487Z,100320.77
2019-04-30T11:41:47.986Z,100315.50
2019-04-30T11:44:28.458Z,100311.38
2019-04-30T11:47:09.542Z,100300.48
2019-04-30T11:49:38.924Z,100310.75
2019-04-30T11:52:08.207Z,100305.37
2019-04-30T11:54:48.664Z,100312.52
2019-04-30T11:57:08.966Z,100303.19
2019-04-30T11:59:39.549Z,100299.25
2019-04-30T12:02:13.701Z,100289.22
2019-04-30T12:04:45.872Z,100285.73
2019-04-30T12:07:22.644Z,100284.46
2019-04-30T12:09:56.250Z,100289.38
2019-04-30T12:12:26.244Z,100287.73
2019-04-30T12:14:55.469Z,100282.83
2019-04-30T12:17:24.667Z,100284.92
2019-04-30T12:19:53.913Z,100276.93
2019-04-30T12:22:23.124Z,100280.73
2019-04-30T12:25:02.213Z,100277.41
2019-04-30T12:27:23.312Z,100273.39
2019-04-30T12:29:52.588Z,100275.05
2019-04-30T12:32:21.826Z,100273.95
2019-04-30T12:34:51.073Z,100270.89
2019-04-30T12:37:20.278Z,100278.56
2019-04-30T12:39:49.552Z,100270.63
2019-04-30T12:42:19.032Z,100275.69
2019-04-30T12:44:49.598Z,100278.15
2019-04-30T12:47:21.755Z,100269.45
2019-04-30T12:49:51.613Z,100265.92
2019-04-30T12:52:22.470Z,100269.84
2019-04-30T12:54:56.125Z,100265.24
2019-04-30T12:57:29.711Z,100259.91
2019-04-30T13:00:00.457Z,100250.05
2019-04-30T13:02:29.914Z,100244.89
2019-04-30T13:05:00.527Z,100252.23
2019-04-30T13:07:30.894Z,100251.30
2019-04-30T13:10:01.951Z,100250.17
2019-04-30T13:12:32.040Z,100244.30
2019-04-30T13:15:01.678Z,100243.02
2019-04-30T13:17:30.891Z,100237.07
2019-04-30T13:20:00.239Z,100238.23
2019-04-30T13:22:29.444Z,100238.84
2019-04-30T13:24:59.682Z,100235.56
2019-04-30T13:27:30.789Z,100232.83
2019-04-30T13:30:01.636Z,100232.80
2019-04-30T13:32:32.948Z,100225.55
2019-04-30T13:35:02.335Z,100223.98
2019-04-30T13:37:35.932Z,100221.20
2019-04-30T13:40:20.141Z,100216.19
2019-04-30T13:42:52.216Z,100211.86
2019-04-30T13:45:21.457Z,100210.83
2019-04-30T13:47:50.662Z,100203.44
2019-04-30T13:50:21.558Z,100202.53
2019-04-30T13:52:50.875Z,100204.41
2019-04-30T13:55:20.124Z,100201.66
2019-04-30T13:57:49.326Z,100205.53
2019-04-30T14:00:23.254Z,100205.11
2019-04-30T14:02:55.733Z,100197.71
2019-04-30T14:05:24.949Z,100192.57
2019-04-30T14:08:13.840Z,100192.33
2019-04-30T14:10:44.705Z,100193.12
2019-04-30T14:13:13.915Z,100184.41
2019-04-30T14:15:44.424Z,100186.80
2019-04-30T14:18:13.687Z,100190.45
2019-04-30T14:20:43.004Z,100189.55
2019-04-30T14:23:12.223Z,100188.65
2019-04-30T14:25:41.443Z,100181.45
2019-04-30T14:28:10.725Z,100187.48
2019-04-30T14:30:39.943Z,100181.04
2019-04-30T14:33:09.560Z,100182.89
2019-04-30T14:35:38.894Z,100180.13
2019-04-30T14:38:09.107Z,100179.52
2019-04-30T14:40:40.445Z,100170.43
2019-04-30T14:43:14.347Z,100170.52
2019-04-30T14:46:01.098Z,100165.91
2019-04-30T14:48:31.244Z,100165.90
2019-04-30T14:51:01.097Z,100170.63
2019-04-30T14:53:32.150Z,100169.97
2019-04-30T14:56:08.962Z,100171.36
2019-04-30T14:58:47.716Z,100171.78
2019-04-30T15:01:33.467Z,100168.42
2019-04-30T15:04:02.685Z,100171.68
2019-04-30T15:06:31.894Z,100171.65
2019-04-30T15:09:01.109Z,100163.70
2019-04-30T15:11:30.346Z,100167.85
2019-04-30T15:13:59.568Z,100166.44
2019-04-30T15:16:28.849Z,100163.23
2019-04-30T15:18:58.078Z,100164.66
2019-04-30T15:21:27.364Z,100159.17
2019-04-30T15:24:09.236Z,100163.12
2019-04-30T15:26:40.719Z,100162.61
2019-04-30T15:29:12.712Z,100157.47
2019-04-30T15:31:42.630Z,100160.41
2019-04-30T15:34:13.165Z,100169.29
2019-04-30T15:36:42.392Z,100171.42
2019-04-30T15:39:13.251Z,100160.58
2019-04-30T15:41:42.481Z,100160.84
2019-04-30T15:44:11.851Z,100162.81
2019-04-30T15:46:41.133Z,100163.98
2019-04-30T15:49:10.355Z,100162.48
2019-04-30T15:51:39.564Z,100156.57
2019-04-30T15:54:08.817Z,100156.37
2019-04-30T15:56:40.512Z,100158.59
2019-04-30T15:59:13.340Z,100157.30
2019-04-30T16:01:44.387Z,100156.04
2019-04-30T16:04:15.252Z,100156.55
2019-04-30T16:06:44.463Z,100151.26
2019-04-30T16:09:21.580Z,100156.00
2019-04-30T16:11:52.535Z,100152.64
2019-04-30T16:14:26.336Z,100149.21
2019-04-30T16:16:57.236Z,100147.32
2019-04-30T16:19:26.479Z,100150.01
2019-04-30T16:21:55.697Z,100147.66
2019-04-30T16:24:24.943Z,100143.97
2019-04-30T16:26:54.159Z,100141.75
2019-04-30T16:29:23.475Z,100144.22
2019-04-30T16:31:52.709Z,100139.79
2019-04-30T16:34:21.946Z,100144.61
2019-04-30T16:36:51.153Z,100138.62
2019-04-30T16:39:20.476Z,100136.77
2019-04-30T16:41:49.866Z,100137.86
2019-04-30T16:44:19.272Z,100136.52
2019-04-30T16:46:49.910Z,100133.50
2019-04-30T16:49:19.385Z,100136.02
2019-04-30T16:51:50.060Z,100130.02
2019-04-30T16:54:19.397Z,100127.17
2019-04-30T16:57:02.507Z,100123.70
2019-04-30T16:59:24.270Z,100123.66
2019-04-30T17:01:57.834Z,100120.02
2019-04-30T17:04:26.675Z,100121.11
2019-04-30T17:07:12.318Z,100123.03
2019-04-30T17:09:50.909Z,100122.36
2019-04-30T17:12:38.636Z,100122.05
2019-04-30T17:15:22.893Z,100121.68
2019-04-30T17:17:52.101Z,100122.51
2019-04-30T17:20:21.399Z,100124.98
2019-04-30T17:22:50.707Z,100123.84
2019-04-30T17:25:19.906Z,100125.45
2019-04-30T17:27:49.116Z,100122.18
2019-04-30T17:30:19.372Z,100126.13
2019-04-30T17:32:49.837Z,100122.09
2019-04-30T17:35:19.461Z,100125.28
2019-04-30T17:37:48.671Z,100122.22
2019-04-30T17:40:19.222Z,100121.68
2019-04-30T17:42:48.690Z,100123.94
2019-04-30T17:45:19.530Z,100121.00
2019-04-30T17:47:48.923Z,100124.56
2019-04-30T17:50:18.718Z,100127.23
2019-04-30T17:52:48.240Z,100127.20
2019-04-30T17:55:19.357Z,100128.87
2019-04-30T17:57:48.765Z,100131.76
2019-04-30T18:00:21.624Z,100129.45
2019-04-30T18:02:49.543Z,100134.63
2019-04-30T18:05:19.473Z,100136.05
2019-04-30T18:07:49.753Z,100134.50
2019-04-30T18:10:19.983Z,100140.22
2019-04-30T18:12:51.973Z,100140.31
2019-04-30T18:15:28.375Z,100138.70
2019-04-30T18:18:08.052Z,100144.09
2019-04-30T18:20:49.159Z,100142.98
2019-04-30T18:23:20.117Z,100146.14
2019-04-30T18:25:53.992Z,100144.75
2019-04-30T18:28:23.207Z,100145.61
2019-04-30T18:30:52.509Z,100146.73
2019-04-30T18:33:21.720Z,100152.58
2019-04-30T18:35:51.024Z,100152.27
2019-04-30T18:38:20.237Z,100156.41
2019-04-30T18:40:49.636Z,100160.95
2019-04-30T18:43:20.568Z,100158.59
2019-04-30T18:45:50.106Z,100162.30
2019-04-30T18:48:19.565Z,100166.03
2019-04-30T18:50:48.803Z,100164.56
2019-04-30T18:53:22.657Z,100163.42
2019-04-30T18:55:51.977Z,100163.84
2019-04-30T18:58:21.176Z,100166.50
2019-04-30T19:00:50.585Z,100168.38
2019-04-30T19:03:21.795Z,100171.05
2019-04-30T19:05:52.420Z,100176.17
2019-04-30T19:08:23.289Z,100174.64
2019-04-30T19:11:03.459Z,100180.59
2019-04-30T19:13:43.345Z,100178.04
2019-04-30T19:16:30.373Z,100187.42
2019-04-30T19:19:01.234Z,100191.28
2019-04-30T19:21:30.627Z,100191.71
2019-04-30T19:23:59.858Z,100191.06
2019-04-30T19:26:29.411Z,100193.42
2019-04-30T19:28:58.647Z,100195.41
2019-04-30T19:31:29.604Z,100196.87
2019-04-30T19:33:58.996Z,100200.60
2019-04-30T19:36:37.253Z,100202.66
2019-04-30T19:38:59.750Z,100198.91
2019-04-30T19:41:29.151Z,100202.59
2019-04-30T19:43:58.389Z,100208.56
2019-04-30T19:46:29.328Z,100210.81
2019-04-30T19:48:58.649Z,100219.92
2019-04-30T19:51:29.517Z,100222.69
2019-04-30T19:53:59.860Z,100222.60
2019-04-30T19:56:30.442Z,100225.36
2019-04-30T19:59:05.254Z,100227.97
2019-04-30T20:01:31.188Z,100230.20
2019-04-30T20:04:00.423Z,100233.88
2019-04-30T20:06:29.646Z,100233.02
2019-04-30T20:09:00.733Z,100235.97
2019-04-30T20:11:29.829Z,100235.95
2019-04-30T20:13:59.072Z,100235.62
2019-04-30T20:16:28.286Z,100234.87
2019-04-30T20:18:59.191Z,100234.08
2019-04-30T20:21:44.964Z,100236.45
2019-04-30T20:23:59.724Z,100239.59
2019-04-30T20:26:28.960Z,100248.95
2019-04-30T20:28:59.036Z,100251.29
2019-04-30T20:31:28.868Z,100239.95
2019-04-30T20:33:59.404Z,100243.13
2019-04-30T20:36:29.154Z,100242.19
2019-04-30T20:39:00.036Z,100242.42
2019-04-30T20:41:31.019Z,100239.96
2019-04-30T20:44:00.243Z,100233.89
2019-04-30T20:46:34.775Z,100241.40
2019-04-30T20:49:00.412Z,100240.47
2019-04-30T20:51:29.628Z,100232.39
2019-04-30T20:53:59.265Z,100238.16
2019-04-30T20:56:29.130Z,100235.93
2019-04-30T20:59:04.082Z,100229.80
2019-04-30T21:01:29.912Z,100231.83
2019-04-30T21:03:59.137Z,100226.92
2019-04-30T21:06:29.736Z,100233.48
2019-04-30T21:08:59.148Z,100230.38
2019-04-30T21:11:28.362Z,100230.71
2019-04-30T21:13:59.063Z,100230.64
2019-04-30T21:16:28.380Z,100232.67
2019-04-30T21:18:57.613Z,100235.16
2019-04-30T21:21:28.443Z,100227.69
2019-04-30T21:23:57.861Z,100224.15
2019-04-30T21:26:27.075Z,100228.58
2019-04-30T21:28:58.150Z,100224.27
2019-04-30T21:31:43.889Z,100227.83
2019-04-30T21:34:31.017Z,100228.91
2019-04-30T21:37:00.315Z,100224.63
2019-04-30T21:39:29.548Z,100223.61
2019-04-30T21:41:59.470Z,100222.44
2019-04-30T21:44:28.852Z,100222.09
2019-04-30T21:46:58.129Z,100222.39
2019-04-30T21:49:27.371Z,100224.38
2019-04-30T21:51:56.576Z,100224.34
2019-04-30T21:54:25.874Z,100224.96
2019-04-30T21:56:55.079Z,100221.38
2019-04-30T21:59:24.850Z,100219.53
2019-04-30T22:01:54.163Z,100219.80
2019-04-30T22:04:23.388Z,100227.47
2019-04-30T22:06:52.595Z,100226.30
2019-04-30T22:09:21.821Z,100226.72
2019-04-30T22:11:51.021Z,100227.73
2019-04-30T22:14:20.281Z,100226.92
2019-04-30T22:16:49.508Z,100224.44
2019-04-30T22:19:18.746Z,100224.97
2019-04-30T22:21:49.580Z,100224.98
2019-04-30T22:24:18.921Z,100224.99
2019-04-30T22:26:48.106Z,100221.81
2019-04-30T22:29:19.111Z,100223.30
2019-04-30T22:31:49.474Z,100224.38
2019-04-30T22:34:18.956Z,100218.09
2019-04-30T22:36:48.971Z,100223.53
2019-04-30T22:39:29.920Z,100218.56
2019-04-30T22:42:32.756Z,100219.36
2019-04-30T22:45:02.619Z,100220.55
2019-04-30T22:47:31.844Z,100217.90
2019-04-30T22:50:01.042Z,100217.77
2019-04-30T22:52:30.272Z,100214.69
2019-04-30T22:54:59.489Z,100209.98
2019-04-30T22:57:28.698Z,100213.53
2019-04-30T22:59:57.921Z,100210.50
2019-04-30T23:02:28.797Z,100210.44
2019-04-30T23:04:59.480Z,100204.61
2019-04-30T23:07:28.715Z,100209.02
2019-04-30T23:09:57.926Z,100208.91
2019-04-30T23:12:27.449Z,100207.53
2019-04-30T23:14:56.651Z,100205.30
2019-04-30T23:17:25.897Z,100203.50
2019-04-30T23:19:55.097Z,100202.38
2019-04-30T23:22:24.393Z,100200.99
2019-04-30T23:24:53.593Z,100200.67
2019-04-30T23:27:22.814Z,100200.75
2019-04-30T23:30:02.695Z,100200.34
2019-04-30T23:32:23.046Z,100196.28
2019-04-30T23:34:52.253Z,100194.09
2019-04-30T23:37:21.493Z,100189.44
2019-04-30T23:39:50.714Z,100188.42
2019-04-30T23:42:19.997Z,100187.41
2019-04-30T23:44:49.206Z,100187.79
2019-04-30T23:47:18.428Z,100182.42
2019-04-30T23:49:47.639Z,100182.25
2019-04-30T23:52:16.880Z,100183.53
2019-04-30T23:54:46.093Z,100184.89
2019-04-30T23:57:15.314Z,100176.80
2019-04-30T23:59:44.516Z,100177.97
